Ana Sayfa
METAR-TAF:

METAR-TAF

Havaalanları :

Derby, Avustralya

Enlem: 17-22-12S, Boylam: 123-39-38E, yükseklik: 7 m

Güncel hava durumu gözlemi

Rapor saat 07:00 UTC de 1 saat ve 2 dakika önce yapıldı.
Rüzgar güneydan 7 kt
Sıcaklık 33°C
Nem 13%
Basınç 1011 hPa
Görüş mesafesi 10 km veya daha fazla

METAR: YDBY 220700Z AUTO 19007KT 9999 // NCD 33/01 Q1011

Saat: 16:02 (08:02 UTC)


TAF: eksik

4.000'den fazla havaalanı için hava durumu gözlemleri ve tahminleri (METAR ve TAF raporları).

Kullanılabilir istasyonlar harita üzerinde sarı ve kırmızı noktalarla gösterilir.

İstasyonun adını görmek için fareyi noktanın üzerinde gezdirin.

Sonrasında hava gözlem ve tahminlerini görmek için tıklayın.

Haritayı değiştirmek için: yaklaştırmak için siyah artı işaretli yeşil düğmeye ve uzaklaştırmak için de eksi işaretli düğmeye hızla tıklayın; bitişik haritalar için yeşil okları kullanın.


METAR-TAF: